createdAt,value
2022-07-27T00:01:28.278Z,1.67
2022-07-27T00:03:55.274Z,1.80
2022-07-27T00:06:22.201Z,1.67
2022-07-27T00:08:49.076Z,1.60
2022-07-27T00:11:15.895Z,1.90
2022-07-27T00:13:42.839Z,1.40
2022-07-27T00:16:09.744Z,1.50
2022-07-27T00:18:36.682Z,1.48
2022-07-27T00:21:03.761Z,1.60
2022-07-27T00:23:30.692Z,1.70
2022-07-27T00:25:57.553Z,1.50
2022-07-27T00:28:24.411Z,1.42
2022-07-27T00:30:51.253Z,1.65
2022-07-27T00:33:18.092Z,1.60
2022-07-27T00:35:45.371Z,1.63
2022-07-27T00:38:12.207Z,1.70
2022-07-27T00:40:39.005Z,1.77
2022-07-27T00:43:05.863Z,1.80
2022-07-27T00:45:33.014Z,1.90
2022-07-27T00:47:59.916Z,1.70
2022-07-27T00:50:27.019Z,1.70
2022-07-27T00:52:53.865Z,1.55
2022-07-27T00:55:20.740Z,1.77
2022-07-27T00:57:53.149Z,2.00
2022-07-27T01:00:27.135Z,2.00
2022-07-27T01:02:54.306Z,1.83
2022-07-27T01:05:24.528Z,1.55
2022-07-27T01:08:03.771Z,1.50
2022-07-27T01:10:30.635Z,1.40
2022-07-27T01:12:57.456Z,1.58
2022-07-27T01:15:24.266Z,1.58
2022-07-27T01:17:51.131Z,1.60
2022-07-27T01:20:17.972Z,1.40
2022-07-27T01:22:44.869Z,1.75
2022-07-27T01:25:11.757Z,1.60
2022-07-27T01:27:38.591Z,1.48
2022-07-27T01:30:25.728Z,2.00
2022-07-27T01:33:06.818Z,1.80
2022-07-27T01:35:33.906Z,1.95
2022-07-27T01:38:00.829Z,1.85
2022-07-27T01:40:29.142Z,1.55
2022-07-27T01:42:56.007Z,1.42
2022-07-27T01:45:22.898Z,1.60
2022-07-27T01:47:49.749Z,1.70
2022-07-27T01:50:16.602Z,1.73
2022-07-27T01:52:43.540Z,1.70
2022-07-27T01:55:10.919Z,1.70
2022-07-27T01:57:38.353Z,1.58
2022-07-27T02:00:09.491Z,1.52
2022-07-27T02:02:39.971Z,1.63
2022-07-27T02:05:07.730Z,1.60
2022-07-27T02:07:34.640Z,1.50
2022-07-27T02:10:01.447Z,1.73
2022-07-27T02:12:36.452Z,1.73
2022-07-27T02:15:25.289Z,1.73
2022-07-27T02:17:52.614Z,1.50
2022-07-27T02:20:21.277Z,1.52
2022-07-27T02:22:48.153Z,1.42
2022-07-27T02:25:16.482Z,1.92
2022-07-27T02:27:43.774Z,1.70
2022-07-27T02:30:11.377Z,1.58
2022-07-27T02:32:38.364Z,2.08
2022-07-27T02:35:19.396Z,1.88
2022-07-27T02:37:47.661Z,1.73
2022-07-27T02:40:17.311Z,1.85
2022-07-27T02:42:45.204Z,1.67
2022-07-27T02:45:12.015Z,1.40
2022-07-27T02:47:40.117Z,1.65
2022-07-27T02:50:10.016Z,1.60
2022-07-27T02:52:37.322Z,1.50
2022-07-27T02:55:05.042Z,1.70
2022-07-27T02:57:34.416Z,1.45
2022-07-27T03:00:05.402Z,2.40
2022-07-27T03:02:32.248Z,1.67
2022-07-27T03:04:59.090Z,1.80
2022-07-27T03:07:25.930Z,1.52
2022-07-27T03:09:52.908Z,1.70
2022-07-27T03:12:19.748Z,1.70
2022-07-27T03:14:47.037Z,1.50
2022-07-27T03:17:13.863Z,1.80
2022-07-27T03:19:40.681Z,1.77
2022-07-27T03:22:07.485Z,1.80
2022-07-27T03:24:34.395Z,2.00
2022-07-27T03:27:01.199Z,1.58
2022-07-27T03:29:29.378Z,1.63
2022-07-27T03:31:56.487Z,1.92
2022-07-27T03:34:23.472Z,1.73
2022-07-27T03:36:50.612Z,1.52
2022-07-27T03:39:17.526Z,1.80
2022-07-27T03:41:44.370Z,2.03
2022-07-27T03:44:13.376Z,1.85
2022-07-27T03:46:40.198Z,1.55
2022-07-27T03:49:14.244Z,1.70
2022-07-27T03:51:42.106Z,1.45
2022-07-27T03:54:08.954Z,1.30
2022-07-27T03:56:35.923Z,2.70
2022-07-27T03:59:02.779Z,1.73
2022-07-27T04:01:29.727Z,1.77
2022-07-27T04:03:56.701Z,1.90
2022-07-27T04:06:23.565Z,1.70
2022-07-27T04:08:51.123Z,1.50
2022-07-27T04:11:23.041Z,2.07
2022-07-27T04:13:52.609Z,2.03
2022-07-27T04:16:19.605Z,1.70
2022-07-27T04:18:46.701Z,2.05
2022-07-27T04:21:16.021Z,1.85
2022-07-27T04:23:42.865Z,2.17
2022-07-27T04:26:09.942Z,1.95
2022-07-27T04:28:37.107Z,1.90
2022-07-27T04:31:04.141Z,1.98
2022-07-27T04:33:31.851Z,1.60
2022-07-27T04:35:58.671Z,1.63
2022-07-27T04:38:25.553Z,1.38
2022-07-27T04:40:57.813Z,1.85
2022-07-27T04:43:25.159Z,1.80
2022-07-27T04:45:55.123Z,1.80
2022-07-27T04:48:21.992Z,1.52
2022-07-27T04:50:48.840Z,1.50
2022-07-27T04:53:16.345Z,1.90
2022-07-27T04:55:44.318Z,1.55
2022-07-27T04:58:11.708Z,1.88
2022-07-27T05:00:38.539Z,1.90
2022-07-27T05:03:05.370Z,1.85
2022-07-27T05:05:32.362Z,1.90
2022-07-27T05:07:59.202Z,2.25
2022-07-27T05:10:26.080Z,2.17
2022-07-27T05:12:53.165Z,2.03
2022-07-27T05:15:20.176Z,2.00
2022-07-27T05:17:47.239Z,1.90
2022-07-27T05:20:14.348Z,2.00
2022-07-27T05:22:41.194Z,2.10
2022-07-27T05:25:08.560Z,1.95
2022-07-27T05:27:37.230Z,2.15
2022-07-27T05:30:22.028Z,1.90
2022-07-27T05:32:48.889Z,1.95
2022-07-27T05:35:15.795Z,1.77
2022-07-27T05:37:42.862Z,2.20
2022-07-27T05:40:10.733Z,1.80
2022-07-27T05:42:37.712Z,2.10
2022-07-27T05:45:05.069Z,2.10
2022-07-27T05:47:31.893Z,2.00
2022-07-27T05:49:59.537Z,1.90
2022-07-27T05:52:26.435Z,1.75
2022-07-27T05:54:53.276Z,1.95
2022-07-27T05:57:20.163Z,1.50
2022-07-27T05:59:47.025Z,1.98
2022-07-27T06:02:13.951Z,2.47
2022-07-27T06:04:43.143Z,1.83
2022-07-27T06:07:28.766Z,1.70
2022-07-27T06:09:55.613Z,2.00
2022-07-27T06:12:22.468Z,2.30
2022-07-27T06:14:56.868Z,2.28
2022-07-27T06:17:23.841Z,1.90
2022-07-27T06:19:50.719Z,1.83
2022-07-27T06:22:18.590Z,2.17
2022-07-27T06:24:45.394Z,2.28
2022-07-27T06:27:12.214Z,1.85
2022-07-27T06:29:39.038Z,2.13
2022-07-27T06:32:06.391Z,2.30
2022-07-27T06:34:38.405Z,2.30
2022-07-27T06:37:09.323Z,2.05
2022-07-27T06:39:36.179Z,2.28
2022-07-27T06:42:03.571Z,2.00
2022-07-27T06:44:30.514Z,2.08
2022-07-27T06:46:57.427Z,1.90
2022-07-27T06:49:24.319Z,2.05
2022-07-27T06:51:51.237Z,2.22
2022-07-27T06:54:18.036Z,2.20
2022-07-27T06:56:44.850Z,2.00
2022-07-27T06:59:12.125Z,1.83
2022-07-27T07:01:39.251Z,2.20
2022-07-27T07:04:06.819Z,2.22
2022-07-27T07:06:33.830Z,1.95
2022-07-27T07:09:00.669Z,1.95
2022-07-27T07:11:27.515Z,2.17
2022-07-27T07:13:54.372Z,2.20
2022-07-27T07:16:21.460Z,2.05
2022-07-27T07:18:52.240Z,2.33
2022-07-27T07:21:19.449Z,1.73
2022-07-27T07:23:46.267Z,2.25
2022-07-27T07:26:13.107Z,1.98
2022-07-27T07:28:39.956Z,2.00
2022-07-27T07:31:06.940Z,1.88
2022-07-27T07:33:33.884Z,2.15
2022-07-27T07:36:13.663Z,2.17
2022-07-27T07:38:42.564Z,2.03
2022-07-27T07:41:09.933Z,1.90
2022-07-27T07:43:38.712Z,2.30
2022-07-27T07:46:05.823Z,2.30
2022-07-27T07:48:32.880Z,1.65
2022-07-27T07:50:59.774Z,1.88
2022-07-27T07:53:26.588Z,1.95
2022-07-27T07:55:53.703Z,2.13
2022-07-27T07:58:20.676Z,1.75
2022-07-27T08:00:47.885Z,2.30
2022-07-27T08:03:15.192Z,2.10
2022-07-27T08:05:42.123Z,2.08
2022-07-27T08:08:09.023Z,1.60
2022-07-27T08:10:36.079Z,2.08
2022-07-27T08:13:02.956Z,2.15
2022-07-27T08:15:35.782Z,1.98
2022-07-27T08:18:06.356Z,1.80
2022-07-27T08:20:33.278Z,1.92
2022-07-27T08:23:00.658Z,2.20
2022-07-27T08:25:28.012Z,2.20
2022-07-27T08:27:55.558Z,2.38
2022-07-27T08:30:23.321Z,2.17
2022-07-27T08:32:51.616Z,2.42
2022-07-27T08:35:19.162Z,2.20
2022-07-27T08:37:46.240Z,2.38
2022-07-27T08:43:01.233Z,2.40
2022-07-27T08:45:28.597Z,2.70
2022-07-27T08:47:55.443Z,2.17
2022-07-27T08:50:25.071Z,2.63
2022-07-27T08:53:05.008Z,2.17
2022-07-27T08:55:37.423Z,2.10
2022-07-27T08:58:04.525Z,2.40
2022-07-27T09:00:32.123Z,2.25
2022-07-27T09:02:59.128Z,2.33
2022-07-27T09:05:27.745Z,2.45
2022-07-27T09:08:11.689Z,2.33
2022-07-27T09:10:38.808Z,2.30
2022-07-27T09:13:26.854Z,2.10
2022-07-27T09:16:17.564Z,1.90
2022-07-27T09:18:43.131Z,2.13
2022-07-27T09:21:17.773Z,1.92
2022-07-27T09:23:50.925Z,1.73
2022-07-27T09:26:33.856Z,1.73
2022-07-27T09:29:12.580Z,2.00
2022-07-27T09:31:48.108Z,2.42
2022-07-27T09:34:27.824Z,1.85
2022-07-27T09:36:56.194Z,2.08
2022-07-27T09:39:24.505Z,1.83
2022-07-27T09:41:52.252Z,1.60
2022-07-27T09:44:34.833Z,1.80
2022-07-27T09:47:22.818Z,1.88
2022-07-27T09:49:49.796Z,1.88
2022-07-27T09:52:27.990Z,1.95
2022-07-27T09:54:55.159Z,1.65
2022-07-27T09:57:22.098Z,3.83
2022-07-27T09:59:48.914Z,1.58
2022-07-27T10:02:15.946Z,1.90
2022-07-27T10:04:43.255Z,2.10
2022-07-27T10:07:13.566Z,2.05
2022-07-27T10:09:41.229Z,1.90
2022-07-27T10:12:08.828Z,1.85
2022-07-27T10:14:36.244Z,1.65
2022-07-27T10:17:03.137Z,1.38
2022-07-27T10:19:35.699Z,1.50
2022-07-27T10:22:02.554Z,1.40
2022-07-27T10:24:36.240Z,1.48
2022-07-27T10:27:27.928Z,1.40
2022-07-27T10:29:55.430Z,1.60
2022-07-27T10:32:31.303Z,1.60
2022-07-27T10:34:58.530Z,1.50
2022-07-27T10:37:32.890Z,1.30
2022-07-27T10:41:00.773Z,1.67
2022-07-27T10:43:27.768Z,1.40
2022-07-27T10:46:01.561Z,1.40
2022-07-27T10:48:48.687Z,1.67
2022-07-27T10:51:19.079Z,1.30
2022-07-27T10:56:45.599Z,1.67
2022-07-27T10:59:12.486Z,1.88
2022-07-27T11:01:56.287Z,1.63
2022-07-27T11:04:24.270Z,1.50
2022-07-27T11:10:03.658Z,1.63
2022-07-27T11:12:32.449Z,1.70
2022-07-27T11:14:59.557Z,1.48
2022-07-27T11:20:14.782Z,1.55
2022-07-27T11:25:28.931Z,1.25
2022-07-27T11:27:55.858Z,1.50
2022-07-27T11:30:27.452Z,1.33
2022-07-27T11:32:54.939Z,1.40
2022-07-27T11:35:22.105Z,1.70
2022-07-27T11:38:05.676Z,1.40
2022-07-27T11:43:44.008Z,1.38
2022-07-27T11:46:20.951Z,1.30
2022-07-27T11:49:06.741Z,1.58
2022-07-27T11:51:39.225Z,1.77
2022-07-27T11:54:08.240Z,1.23
2022-07-27T11:56:36.586Z,1.27
2022-07-27T11:59:06.596Z,1.33
2022-07-27T12:01:38.591Z,1.52
2022-07-27T12:04:10.346Z,1.42
2022-07-27T12:06:37.493Z,1.38
2022-07-27T12:09:05.128Z,1.83
2022-07-27T12:11:50.379Z,1.73
2022-07-27T12:14:18.160Z,1.40
2022-07-27T12:16:45.685Z,1.42
2022-07-27T12:19:12.993Z,1.60
2022-07-27T12:21:40.660Z,1.50
2022-07-27T12:24:09.615Z,1.50
2022-07-27T12:26:37.500Z,1.40
2022-07-27T12:29:09.235Z,1.30
2022-07-27T12:32:42.579Z,1.52
2022-07-27T12:35:48.341Z,1.88
2022-07-27T12:38:15.370Z,1.90
2022-07-27T12:40:50.041Z,1.63
2022-07-27T12:43:21.270Z,1.58
2022-07-27T12:45:49.410Z,1.17
2022-07-27T12:48:23.443Z,1.70
2022-07-27T12:51:05.076Z,1.95
2022-07-27T12:53:32.634Z,1.55
2022-07-27T12:56:02.761Z,1.52
2022-07-27T12:58:29.846Z,1.70
2022-07-27T13:00:56.896Z,1.30
2022-07-27T13:03:23.985Z,1.77
2022-07-27T13:05:50.889Z,1.55
2022-07-27T13:08:17.839Z,1.80
2022-07-27T13:10:44.935Z,1.67
2022-07-27T13:13:12.023Z,1.70
2022-07-27T13:15:38.976Z,1.75
2022-07-27T13:18:06.344Z,1.50
2022-07-27T13:20:35.760Z,1.70
2022-07-27T13:23:02.740Z,1.40
2022-07-27T13:25:29.717Z,1.65
2022-07-27T13:27:56.877Z,2.15
2022-07-27T13:30:25.141Z,1.33
2022-07-27T13:32:52.130Z,1.50
2022-07-27T13:35:19.041Z,1.60
2022-07-27T13:37:46.128Z,1.38
2022-07-27T13:40:13.323Z,1.80
2022-07-27T13:42:40.292Z,1.77
2022-07-27T13:45:10.927Z,1.73
2022-07-27T13:47:39.538Z,1.45
2022-07-27T13:50:15.093Z,1.73
2022-07-27T13:52:43.961Z,1.90
2022-07-27T13:55:10.922Z,1.55
2022-07-27T13:57:38.051Z,1.70
2022-07-27T14:00:05.785Z,1.40
2022-07-27T14:02:33.020Z,2.08
2022-07-27T14:05:00.050Z,1.35
2022-07-27T14:07:28.566Z,1.73
2022-07-27T14:10:14.396Z,1.70
2022-07-27T14:12:41.372Z,1.40
2022-07-27T14:15:08.884Z,1.35
2022-07-27T14:17:37.465Z,1.60
2022-07-27T14:20:05.968Z,1.50
2022-07-27T14:22:33.216Z,1.60
2022-07-27T14:25:00.310Z,1.40
2022-07-27T14:27:36.091Z,1.60
2022-07-27T14:30:06.946Z,1.40
2022-07-27T14:32:34.418Z,1.45
2022-07-27T14:35:01.472Z,2.00
2022-07-27T14:37:28.405Z,1.45
2022-07-27T14:39:55.273Z,1.55
2022-07-27T14:42:23.993Z,1.30
2022-07-27T14:44:51.268Z,1.55
2022-07-27T14:47:18.757Z,1.63
2022-07-27T14:49:45.710Z,1.70
2022-07-27T14:52:15.611Z,1.30
2022-07-27T14:54:43.333Z,1.30
2022-07-27T14:57:10.247Z,1.55
2022-07-27T14:59:37.173Z,1.80
2022-07-27T15:02:04.201Z,1.75
2022-07-27T15:04:31.690Z,1.90
2022-07-27T15:06:58.891Z,1.30
2022-07-27T15:09:28.445Z,1.27
2022-07-27T15:11:55.388Z,1.80
2022-07-27T15:14:23.094Z,1.38
2022-07-27T15:16:51.008Z,1.20
2022-07-27T15:19:17.990Z,1.67
2022-07-27T15:21:44.893Z,1.65
2022-07-27T15:24:11.987Z,1.65
2022-07-27T15:26:38.993Z,1.30
2022-07-27T15:29:05.949Z,1.40
2022-07-27T15:31:32.925Z,1.45
2022-07-27T15:34:00.364Z,1.42
2022-07-27T15:36:31.871Z,1.30
2022-07-27T15:41:27.107Z,1.55
2022-07-27T15:43:53.998Z,1.58
2022-07-27T15:46:27.262Z,1.52
2022-07-27T15:48:55.392Z,1.67
2022-07-27T15:51:22.363Z,1.60
2022-07-27T15:53:49.201Z,1.58
2022-07-27T15:56:16.106Z,1.40
2022-07-27T15:58:43.089Z,1.50
2022-07-27T16:01:12.176Z,1.65
2022-07-27T16:03:39.347Z,1.65
2022-07-27T16:06:06.367Z,1.40
2022-07-27T16:08:33.286Z,1.55
2022-07-27T16:11:00.197Z,1.50
2022-07-27T16:13:27.107Z,1.70
2022-07-27T16:16:12.590Z,1.63
2022-07-27T16:18:39.491Z,1.50
2022-07-27T16:21:07.140Z,1.30
2022-07-27T16:23:34.072Z,1.50
2022-07-27T16:26:05.719Z,1.27
2022-07-27T16:28:37.186Z,1.27
2022-07-27T16:31:05.140Z,1.58
2022-07-27T16:33:32.123Z,1.60
2022-07-27T16:35:59.657Z,1.40
2022-07-27T16:38:26.538Z,1.33
2022-07-27T16:40:53.406Z,1.85
2022-07-27T16:43:20.192Z,1.42
2022-07-27T16:45:47.066Z,1.52
2022-07-27T16:48:14.011Z,1.52
2022-07-27T16:50:41.424Z,1.70
2022-07-27T16:53:08.334Z,1.50
2022-07-27T16:55:35.219Z,1.40
2022-07-27T16:58:02.062Z,1.42
2022-07-27T17:00:29.099Z,1.60
2022-07-27T17:02:56.016Z,1.83
2022-07-27T17:05:22.924Z,2.05
2022-07-27T17:07:52.285Z,1.58
2022-07-27T17:10:26.614Z,1.52
2022-07-27T17:12:54.152Z,1.50
2022-07-27T17:15:22.697Z,1.20
2022-07-27T17:17:49.556Z,1.77
2022-07-27T17:20:16.403Z,1.60
2022-07-27T17:22:58.403Z,1.70
2022-07-27T17:25:25.531Z,1.60
2022-07-27T17:27:52.353Z,1.33
2022-07-27T17:30:19.257Z,1.60
2022-07-27T17:32:46.152Z,1.60
2022-07-27T17:35:13.025Z,1.65
2022-07-27T17:38:04.546Z,1.98
2022-07-27T17:40:26.739Z,1.80
2022-07-27T17:42:53.535Z,1.80
2022-07-27T17:45:20.416Z,2.03
2022-07-27T17:47:47.364Z,1.83
2022-07-27T17:50:14.216Z,1.80
2022-07-27T17:52:41.461Z,1.77
2022-07-27T17:55:09.253Z,1.48
2022-07-27T17:57:36.093Z,1.77
2022-07-27T18:00:05.068Z,1.75
2022-07-27T18:02:31.917Z,1.95
2022-07-27T18:04:58.835Z,1.67
2022-07-27T18:07:25.674Z,1.70
2022-07-27T18:09:52.554Z,1.98
2022-07-27T18:12:21.801Z,1.77
2022-07-27T18:15:08.179Z,2.00
2022-07-27T18:17:38.929Z,1.90
2022-07-27T18:20:09.993Z,1.60
2022-07-27T18:22:38.598Z,1.50
2022-07-27T18:25:06.478Z,1.50
2022-07-27T18:27:35.343Z,1.80
2022-07-27T18:30:02.814Z,1.50
2022-07-27T18:32:29.703Z,1.65
2022-07-27T18:34:56.536Z,1.52
2022-07-27T18:37:23.383Z,1.75
2022-07-27T18:39:50.183Z,1.75
2022-07-27T18:42:17.030Z,1.48
2022-07-27T18:44:43.895Z,1.80
2022-07-27T18:47:10.670Z,1.50
2022-07-27T18:49:37.614Z,1.52
2022-07-27T18:52:05.309Z,1.27
2022-07-27T18:54:32.106Z,1.90
2022-07-27T18:56:59.938Z,1.85
2022-07-27T18:59:26.789Z,1.55
2022-07-27T19:01:53.636Z,1.90
2022-07-27T19:04:20.471Z,1.70
2022-07-27T19:06:51.628Z,1.67
2022-07-27T19:09:18.579Z,1.40
2022-07-27T19:11:45.532Z,1.55
2022-07-27T19:14:12.585Z,1.67
2022-07-27T19:16:39.559Z,1.63
2022-07-27T19:19:10.260Z,1.70
2022-07-27T19:21:41.297Z,1.55
2022-07-27T19:24:08.275Z,1.88
2022-07-27T19:26:35.236Z,1.80
2022-07-27T19:29:02.057Z,1.70
2022-07-27T19:31:29.082Z,1.65
2022-07-27T19:33:56.170Z,1.65
2022-07-27T19:36:23.298Z,1.90
2022-07-27T19:38:50.742Z,2.08
2022-07-27T19:41:17.649Z,1.98
2022-07-27T19:43:44.535Z,2.20
2022-07-27T19:46:11.506Z,2.00
2022-07-27T19:48:38.475Z,1.80
2022-07-27T19:51:07.305Z,1.88
2022-07-27T19:53:35.624Z,1.88
2022-07-27T19:56:03.040Z,2.00
2022-07-27T19:58:31.361Z,1.95
2022-07-27T20:00:58.383Z,1.90
2022-07-27T20:03:25.545Z,1.95
2022-07-27T20:05:52.456Z,1.70
2022-07-27T20:08:19.341Z,1.77
2022-07-27T20:10:47.545Z,2.30
2022-07-27T20:13:14.453Z,2.40
2022-07-27T20:15:41.349Z,2.00
2022-07-27T20:18:08.204Z,1.98
2022-07-27T20:20:35.315Z,2.20
2022-07-27T20:23:02.150Z,1.70
2022-07-27T20:25:29.062Z,1.50
2022-07-27T20:27:55.888Z,1.73
2022-07-27T20:30:22.805Z,2.00
2022-07-27T20:32:49.889Z,1.80
2022-07-27T20:35:16.960Z,2.20
2022-07-27T20:37:44.763Z,2.00
2022-07-27T20:40:12.056Z,2.00
2022-07-27T20:42:40.446Z,1.90
2022-07-27T20:45:10.169Z,2.10
2022-07-27T20:47:38.428Z,1.83
2022-07-27T20:50:07.857Z,1.90
2022-07-27T20:52:34.727Z,1.95
2022-07-27T20:55:01.633Z,2.08
2022-07-27T20:57:28.624Z,2.10
2022-07-27T20:59:55.527Z,2.33
2022-07-27T21:02:22.397Z,2.17
2022-07-27T21:04:49.360Z,2.20
2022-07-27T21:07:16.244Z,2.05
2022-07-27T21:09:43.093Z,1.70
2022-07-27T21:12:09.921Z,1.67
2022-07-27T21:14:36.766Z,1.90
2022-07-27T21:17:03.932Z,1.80
2022-07-27T21:19:30.868Z,1.83
2022-07-27T21:21:57.699Z,1.90
2022-07-27T21:24:26.043Z,1.85
2022-07-27T21:26:53.092Z,1.70
2022-07-27T21:29:20.410Z,2.08
2022-07-27T21:31:49.030Z,2.05
2022-07-27T21:34:17.786Z,1.92
2022-07-27T21:36:45.186Z,2.15
2022-07-27T21:39:12.331Z,1.70
2022-07-27T21:41:39.412Z,2.00
2022-07-27T21:44:06.272Z,2.10
2022-07-27T21:46:33.178Z,1.80
2022-07-27T21:49:00.018Z,2.60
2022-07-27T21:51:26.953Z,2.00
2022-07-27T21:53:53.817Z,2.22
2022-07-27T21:56:20.684Z,2.22
2022-07-27T21:58:48.786Z,2.30
2022-07-27T22:01:16.091Z,2.83
2022-07-27T22:03:43.528Z,2.40
2022-07-27T22:06:10.524Z,2.00
2022-07-27T22:08:37.553Z,2.45
2022-07-27T22:11:04.461Z,2.15
2022-07-27T22:13:31.569Z,2.65
2022-07-27T22:15:58.481Z,2.22
2022-07-27T22:18:25.403Z,2.33
2022-07-27T22:20:52.351Z,2.13
2022-07-27T22:23:19.243Z,2.00
2022-07-27T22:25:46.414Z,1.90
2022-07-27T22:28:13.254Z,2.67
2022-07-27T22:30:42.911Z,2.28
2022-07-27T22:33:26.870Z,2.47
2022-07-27T22:35:53.841Z,2.80
2022-07-27T22:38:20.714Z,2.10
2022-07-27T22:40:47.597Z,2.60
2022-07-27T22:43:16.527Z,2.20
2022-07-27T22:45:43.432Z,2.17
2022-07-27T22:48:10.297Z,2.40
2022-07-27T22:50:37.139Z,2.15
2022-07-27T22:53:04.610Z,2.47
2022-07-27T22:55:31.491Z,1.98
2022-07-27T22:57:58.307Z,1.95
2022-07-27T23:00:25.335Z,2.40
2022-07-27T23:02:52.469Z,2.58
2022-07-27T23:05:19.426Z,2.80
2022-07-27T23:07:46.376Z,2.05
2022-07-27T23:10:31.786Z,2.25
2022-07-27T23:12:58.802Z,2.22
2022-07-27T23:15:25.654Z,2.85
2022-07-27T23:17:52.505Z,2.30
2022-07-27T23:20:19.325Z,2.10
2022-07-27T23:22:49.460Z,2.95
2022-07-27T23:25:16.582Z,2.33
2022-07-27T23:27:43.892Z,2.67
2022-07-27T23:30:11.254Z,2.65
2022-07-27T23:32:38.087Z,2.63
2022-07-27T23:35:05.317Z,2.47
2022-07-27T23:37:32.105Z,3.00
2022-07-27T23:39:58.998Z,2.63
2022-07-27T23:42:25.840Z,2.65
2022-07-27T23:44:54.202Z,2.50
2022-07-27T23:47:21.275Z,2.75
2022-07-27T23:49:48.170Z,2.58
2022-07-27T23:52:14.998Z,2.15
2022-07-27T23:54:41.812Z,2.60
2022-07-27T23:57:08.648Z,2.30
2022-07-27T23:59:35.704Z,2.50
